Agat, Guam
Current Conditions -  °F | °C
As of 12:54 AM on Sunday 26 Oct 2014 (Local Time) from PGUM Reporting Station
Clear Clear  
Wind Chill: 81°   Ceiling: Unl
Heat Index: 88°   Visibility: 10mi
Dew Point: 77°   Wind: 5mph
Humidity: 88%   Direction: 70°ENE
Pressure: 29.89"   Gusts: NA
Location:  13.38°N, 144.65°E
Report Text: PGUM 251454Z 07004KT 10SM CLR 27/25 A2989 RMK AO2 SLP113 T02720250 58014 $
Loading
Personal Weather Stations






























Interactive Weather Map
Tropical Storm Tracking
New forecast layout! Learn more

10-Day Weather Forecast

Advertisements
Track Severe Weather on mobile